Dade County-Homestead Regional, FL

9:34 PM EDT on August 04, 2015 (GMT -0400)
Dade County-Homestead Regional | | Change Station
CLOSE
Current Station
Airport
Location: Homestead AFB,
Elevation: 7 ft
Nearby Weather Stations

Elev 7 ft 25.49 °N, 80.38 °W | Updated 36 minutes ago

Clear
Clear
84 °F
Feels Like 93 °F
N
4
Wind Variable Wind from East

Today
High -- | Low -- °F
--% Chance of Precip.
Yesterday
High -- | Low -- °F
Precip. -- in
6:49 AM 8:05 PM
Waning Gibbous, 72% visible
Pressure 30.09 in
Visibility 10.0 miles
Clouds Clear
Heat Index 93 °F
Dew Point 76 °F
Humidity 77%
Rainfall 0.01 in
Snow Depth Not available.
UV 0 out of 12
Pollen 3.00 out of 12
Air Quality Not available.
Flu Activity Not available.
METAR KHST 050058Z AUTO 08003KT 10SM CLR 29/25 A3008 RMK AO2 SLP189 T02900247

More Conditions Fewer Conditions

Pressure 30.09 in
Visibility 10.0 miles
Clouds Clear
Heat Index 93 °F
Dew Point 76 °F
Humidity 77%
Rainfall 0.01 in
Snow Depth Not available.
UV 0 out of 12
Pollen 3.00 out of 12
Air Quality Not available.
Flu Activity Not available.
METAR KHST 050058Z AUTO 08003KT 10SM CLR 29/25 A3008 RMK AO2 SLP189 T02900247

More Conditions Fewer Conditions

10-Day Weather Forecast

×

Almanac

Astronomy

Aug. 04, 2015 Rise Set
Actual Time
Civil Twilight
Nautical Twilight
Astronomical Twilight
Moon
Length of Visible Light
Length of Day
Tomorrow will be .
, % of the Moon is Illuminated

Today's Extremes

State Highs State Lows

Community

WunderPhotos

Upload Photos

1,844,064 photos uploaded!

WunderBlogs® & News

Nearby

Air Quality

  Air Quality AQ Index Pollutant
Not available.

Snow Depth

Station Depth Elevation

Earthquake Activity

City Distance Mag. Time & Date
Minimum magnitude displayed is 2.5.

Coastal Water Temperatures

Place Temperature

Stations

Nearby Weather Stations

Station Location Temp. Windchill Dew Point Humidity Wind Precip. Elev Updated Type